createdAt,value
2018-10-06T00:02:51.494Z,77.18
2018-10-06T00:05:56.842Z,77.46
2018-10-06T00:09:02.219Z,78.35
2018-10-06T00:12:07.908Z,77.37
2018-10-06T00:15:13.306Z,78.15
2018-10-06T00:18:18.694Z,78.08
2018-10-06T00:21:24.050Z,77.81
2018-10-06T00:24:29.442Z,78.04
2018-10-06T00:27:34.826Z,78.29
2018-10-06T00:30:40.198Z,78.42
2018-10-06T00:33:45.621Z,78.27
2018-10-06T00:36:50.989Z,78.58
2018-10-06T00:39:56.372Z,78.26
2018-10-06T00:43:02.389Z,78.11
2018-10-06T00:46:08.133Z,77.55
2018-10-06T00:49:13.511Z,78.15
2018-10-06T00:52:18.872Z,77.86
2018-10-06T00:55:24.256Z,78.16
2018-10-06T00:58:29.638Z,78.49
2018-10-06T01:01:34.999Z,78.00
2018-10-06T01:04:40.382Z,78.34
2018-10-06T01:07:45.762Z,78.91
2018-10-06T01:10:51.313Z,78.49
2018-10-06T01:13:56.794Z,78.06
2018-10-06T01:17:02.166Z,78.21
2018-10-06T01:20:07.893Z,78.52
2018-10-06T01:23:13.274Z,78.50
2018-10-06T01:26:18.650Z,78.16
2018-10-06T01:29:24.038Z,79.12
2018-10-06T01:32:29.398Z,78.82
2018-10-06T01:35:35.183Z,78.76
2018-10-06T01:38:40.565Z,79.29
2018-10-06T01:41:45.918Z,79.33
2018-10-06T01:44:51.303Z,79.24
2018-10-06T01:47:56.664Z,79.50
2018-10-06T01:51:02.147Z,79.88
2018-10-06T01:54:08.004Z,79.81
2018-10-06T01:57:13.361Z,79.64
2018-10-06T02:00:18.742Z,79.52
2018-10-06T02:03:24.226Z,79.72
2018-10-06T02:06:30.671Z,78.96
2018-10-06T02:09:36.383Z,79.25
2018-10-06T02:12:41.741Z,79.28
2018-10-06T02:15:47.168Z,79.32
2018-10-06T02:18:52.550Z,79.68
2018-10-06T02:21:57.954Z,79.74
2018-10-06T02:25:03.388Z,79.20
2018-10-06T02:28:09.282Z,79.31
2018-10-06T02:31:14.716Z,79.71
2018-10-06T02:34:20.119Z,80.46
2018-10-06T02:37:25.470Z,80.29
2018-10-06T02:40:30.868Z,80.49
2018-10-06T02:43:36.247Z,80.62
2018-10-06T02:46:41.634Z,80.20
2018-10-06T02:49:47.190Z,80.54
2018-10-06T02:52:52.742Z,81.18
2018-10-06T02:55:58.146Z,80.93
2018-10-06T02:59:03.544Z,80.44
2018-10-06T03:02:09.613Z,80.38
2018-10-06T03:05:15.007Z,80.44
2018-10-06T03:08:20.358Z,80.35
2018-10-06T03:11:25.751Z,80.66
2018-10-06T03:14:31.166Z,80.14
2018-10-06T03:17:36.527Z,80.43
2018-10-06T03:20:41.915Z,80.57
2018-10-06T03:23:47.299Z,80.44
2018-10-06T03:26:52.730Z,80.93
2018-10-06T03:29:58.117Z,79.78
2018-10-06T03:33:03.518Z,80.29
2018-10-06T03:36:09.590Z,80.09
2018-10-06T03:39:14.945Z,80.29
2018-10-06T03:42:20.340Z,80.48
2018-10-06T03:45:25.730Z,80.14
2018-10-06T03:48:31.094Z,80.67
2018-10-06T03:51:37.038Z,81.06
2018-10-06T03:54:42.422Z,81.29
2018-10-06T03:57:48.419Z,81.03
2018-10-06T04:00:53.799Z,81.45
2018-10-06T04:03:59.178Z,81.65
2018-10-06T04:07:04.575Z,81.52
2018-10-06T04:10:09.961Z,81.47
2018-10-06T04:13:15.322Z,81.29
2018-10-06T04:16:20.727Z,81.47
2018-10-06T04:19:26.133Z,81.25
2018-10-06T04:22:31.926Z,81.65
2018-10-06T04:25:37.330Z,81.97
2018-10-06T04:28:42.698Z,82.36
2018-10-06T04:31:48.074Z,81.77
2018-10-06T04:34:53.466Z,81.82
2018-10-06T04:37:58.978Z,81.58
2018-10-06T04:41:04.354Z,81.57
2018-10-06T04:44:10.159Z,81.51
2018-10-06T04:47:15.534Z,81.47
2018-10-06T04:50:20.922Z,81.55
2018-10-06T04:53:26.310Z,80.97
2018-10-06T04:56:31.685Z,81.66
2018-10-06T04:59:37.043Z,81.48
2018-10-06T05:02:42.429Z,82.04
2018-10-06T05:05:48.161Z,82.10
2018-10-06T05:08:53.530Z,81.90
2018-10-06T05:11:58.921Z,82.35
2018-10-06T05:15:04.302Z,83.07
2018-10-06T05:18:09.686Z,83.67
2018-10-06T05:21:15.102Z,82.92
2018-10-06T05:24:20.463Z,82.61
2018-10-06T05:27:25.842Z,82.99
2018-10-06T05:30:31.203Z,82.90
2018-10-06T05:33:36.632Z,82.99
2018-10-06T05:36:42.042Z,83.28
2018-10-06T05:39:47.405Z,83.43
2018-10-06T05:42:58.994Z,83.16
2018-10-06T05:46:11.991Z,83.15
2018-10-06T05:49:19.651Z,83.53
2018-10-06T05:52:25.030Z,83.31
2018-10-06T05:55:30.502Z,83.72
2018-10-06T05:58:35.892Z,83.62
2018-10-06T06:01:41.288Z,82.70
2018-10-06T06:04:46.793Z,82.63
2018-10-06T06:07:52.374Z,83.10
2018-10-06T06:10:57.856Z,83.17
2018-10-06T06:14:03.286Z,83.65
2018-10-06T06:17:09.057Z,83.66
2018-10-06T06:20:14.516Z,83.84
2018-10-06T06:23:19.902Z,84.11
2018-10-06T06:26:25.446Z,83.44
2018-10-06T06:29:30.826Z,83.87
2018-10-06T06:32:36.203Z,83.37
2018-10-06T06:35:41.610Z,83.51
2018-10-06T06:38:46.990Z,83.19
2018-10-06T06:41:52.370Z,83.35
2018-10-06T06:44:57.734Z,83.25
2018-10-06T06:48:03.156Z,83.04
2018-10-06T06:51:08.526Z,83.45
2018-10-06T06:54:13.915Z,82.45
2018-10-06T06:57:19.298Z,82.56
2018-10-06T07:00:24.687Z,81.66
2018-10-06T07:03:30.089Z,82.46
2018-10-06T07:06:35.486Z,82.04
2018-10-06T07:09:40.871Z,82.41
2018-10-06T07:12:46.338Z,81.79
2018-10-06T07:15:51.862Z,82.07
2018-10-06T07:18:57.251Z,82.28
2018-10-06T07:22:02.669Z,82.35
2018-10-06T07:25:08.238Z,82.51
2018-10-06T07:28:14.262Z,81.55
2018-10-06T07:31:19.638Z,81.70
2018-10-06T07:34:26.001Z,79.46
2018-10-06T07:37:31.385Z,77.78
2018-10-06T07:40:36.913Z,77.79
2018-10-06T07:43:42.356Z,77.90
2018-10-06T07:46:48.071Z,77.97
2018-10-06T07:49:53.501Z,78.25
2018-10-06T07:52:59.112Z,77.81
2018-10-06T07:56:04.711Z,77.39
2018-10-06T07:59:10.591Z,77.64
2018-10-06T08:02:16.222Z,77.41
2018-10-06T08:05:21.618Z,76.67
2018-10-06T08:08:27.274Z,76.97
2018-10-06T08:11:32.642Z,75.84
2018-10-06T08:14:38.038Z,75.76
2018-10-06T08:17:44.599Z,75.06
2018-10-06T08:20:50.162Z,74.58
2018-10-06T08:23:55.614Z,72.34
2018-10-06T08:27:01.010Z,68.72
2018-10-06T08:30:06.451Z,67.35
2018-10-06T08:33:11.880Z,66.16
2018-10-06T08:36:17.862Z,64.91
2018-10-06T08:39:23.304Z,64.68
2018-10-06T08:42:29.358Z,64.80
2018-10-06T08:45:34.749Z,63.63
2018-10-06T08:48:40.732Z,64.70
2018-10-06T08:51:46.103Z,65.52
2018-10-06T08:54:51.542Z,66.45
2018-10-06T08:57:56.966Z,66.56
2018-10-06T09:01:02.515Z,65.47
2018-10-06T09:04:08.227Z,65.67
2018-10-06T09:07:13.771Z,65.74
2018-10-06T09:10:19.193Z,65.75
2018-10-06T09:13:24.667Z,65.77
2018-10-06T09:16:30.031Z,64.86
2018-10-06T09:19:35.473Z,64.95
2018-10-06T09:22:40.919Z,64.88
2018-10-06T09:25:46.311Z,65.16
2018-10-06T09:28:51.704Z,65.47
2018-10-06T09:31:57.191Z,64.34
2018-10-06T09:35:02.606Z,64.75
2018-10-06T09:38:07.982Z,63.77
2018-10-06T09:41:13.834Z,63.60
2018-10-06T09:44:19.230Z,64.33
2018-10-06T09:47:24.594Z,64.61
2018-10-06T09:50:29.986Z,64.48
2018-10-06T09:53:35.396Z,64.41
2018-10-06T09:56:41.386Z,64.63
2018-10-06T09:59:47.046Z,63.99
2018-10-06T10:02:57.778Z,62.96
2018-10-06T10:06:03.178Z,61.98
2018-10-06T10:09:11.650Z,61.75
2018-10-06T10:12:17.736Z,62.17
2018-10-06T10:15:24.132Z,61.14
2018-10-06T10:18:29.828Z,61.23
2018-10-06T10:21:35.526Z,61.25
2018-10-06T10:24:41.041Z,60.43
2018-10-06T10:27:46.429Z,59.93
2018-10-06T10:30:52.129Z,61.08
2018-10-06T10:33:57.598Z,61.10
2018-10-06T10:37:02.999Z,60.86
2018-10-06T10:40:08.616Z,60.90
2018-10-06T10:43:13.992Z,60.56
2018-10-06T10:46:19.733Z,60.41
2018-10-06T10:49:25.129Z,60.61
2018-10-06T10:52:30.702Z,59.60
2018-10-06T10:55:37.124Z,58.92
2018-10-06T10:58:44.907Z,57.74
2018-10-06T11:01:51.486Z,57.56
2018-10-06T11:04:56.996Z,57.01
2018-10-06T11:08:02.529Z,56.72
2018-10-06T11:11:08.265Z,54.65
2018-10-06T11:14:13.670Z,53.17
2018-10-06T11:17:19.150Z,53.31
2018-10-06T11:20:24.702Z,52.15
2018-10-06T11:23:31.558Z,50.88
2018-10-06T11:26:36.977Z,49.67
2018-10-06T11:29:42.354Z,49.00
2018-10-06T11:32:48.206Z,49.69
2018-10-06T11:35:53.615Z,48.88
2018-10-06T11:38:58.982Z,47.89
2018-10-06T11:42:04.498Z,45.91
2018-10-06T11:45:09.906Z,44.66
2018-10-06T11:48:17.439Z,42.64
2018-10-06T11:51:22.842Z,40.97
2018-10-06T11:54:28.245Z,38.10
2018-10-06T11:57:33.658Z,37.62
2018-10-06T12:00:39.094Z,35.88
2018-10-06T12:03:44.794Z,35.40
2018-10-06T12:06:50.345Z,33.69
2018-10-06T12:09:56.023Z,33.65
2018-10-06T12:13:01.770Z,32.21
2018-10-06T12:16:07.226Z,30.87
2018-10-06T12:19:12.590Z,31.30
2018-10-06T12:22:17.974Z,30.78
2018-10-06T12:25:23.342Z,30.47
2018-10-06T12:28:28.737Z,28.38
2018-10-06T12:31:34.140Z,27.87
2018-10-06T12:34:39.688Z,28.31
2018-10-06T12:37:45.150Z,28.26
2018-10-06T12:40:50.546Z,27.33
2018-10-06T12:43:55.985Z,27.91
2018-10-06T12:47:01.457Z,28.45
2018-10-06T12:50:06.873Z,30.55
2018-10-06T12:53:15.067Z,29.85
2018-10-06T12:56:22.689Z,28.14
2018-10-06T12:59:28.219Z,30.05
2018-10-06T13:02:33.695Z,27.71
2018-10-06T13:05:39.150Z,27.51
2018-10-06T13:08:44.531Z,26.95
2018-10-06T13:11:51.397Z,28.07
2018-10-06T13:14:59.269Z,30.18
2018-10-06T13:18:04.801Z,28.47
2018-10-06T13:21:10.353Z,28.57
2018-10-06T13:24:15.859Z,29.01
2018-10-06T13:27:21.492Z,29.73
2018-10-06T13:30:27.282Z,30.00
2018-10-06T13:33:33.411Z,31.84
2018-10-06T13:36:38.799Z,32.39
2018-10-06T13:39:44.215Z,32.74
2018-10-06T13:42:50.168Z,34.51
2018-10-06T13:45:55.579Z,34.93
2018-10-06T13:49:00.971Z,37.66
2018-10-06T13:52:06.491Z,38.17
2018-10-06T13:55:12.291Z,36.59
2018-10-06T13:58:17.731Z,38.29
2018-10-06T14:01:23.148Z,40.10
2018-10-06T14:04:29.014Z,42.52
2018-10-06T14:07:36.586Z,41.63
2018-10-06T14:10:43.145Z,41.41
2018-10-06T14:13:48.951Z,40.73
2018-10-06T14:16:54.469Z,40.06
2018-10-06T14:19:59.862Z,42.40
2018-10-06T14:23:05.274Z,42.00
2018-10-06T14:26:10.800Z,43.87
2018-10-06T14:29:16.389Z,45.56
2018-10-06T14:32:21.848Z,46.20
2018-10-06T14:35:27.521Z,45.57
2018-10-06T14:38:32.997Z,46.32
2018-10-06T14:41:38.509Z,47.62
2018-10-06T14:44:44.147Z,48.44
2018-10-06T14:47:52.417Z,49.08
2018-10-06T14:50:57.825Z,47.89
2018-10-06T14:54:03.269Z,48.13
2018-10-06T14:57:08.750Z,49.17
2018-10-06T15:00:14.515Z,47.48
2018-10-06T15:03:20.025Z,49.46
2018-10-06T15:06:25.422Z,50.96
2018-10-06T15:09:30.815Z,51.81
2018-10-06T15:12:36.645Z,52.65
2018-10-06T15:15:42.122Z,52.20
2018-10-06T15:18:47.527Z,53.44
2018-10-06T15:21:52.963Z,53.67
2018-10-06T15:24:58.587Z,54.82
2018-10-06T15:28:03.991Z,55.77
2018-10-06T15:31:09.635Z,55.62
2018-10-06T15:34:15.126Z,55.74
2018-10-06T15:37:20.522Z,55.98
2018-10-06T15:40:26.041Z,56.34
2018-10-06T15:43:31.549Z,55.78
2018-10-06T15:46:37.323Z,56.57
2018-10-06T15:49:42.725Z,56.82
2018-10-06T15:52:49.010Z,56.03
2018-10-06T15:55:55.057Z,56.84
2018-10-06T15:59:00.487Z,56.79
2018-10-06T16:02:06.006Z,56.63
2018-10-06T16:05:11.636Z,56.87
2018-10-06T16:08:17.009Z,57.59
2018-10-06T16:11:22.459Z,57.64
2018-10-06T16:14:27.870Z,57.91
2018-10-06T16:17:33.295Z,58.73
2018-10-06T16:20:38.672Z,59.13
2018-10-06T16:23:44.138Z,58.85
2018-10-06T16:26:49.535Z,60.34
2018-10-06T16:29:54.918Z,60.35
2018-10-06T16:33:01.493Z,59.77
2018-10-06T16:36:07.103Z,59.63
2018-10-06T16:39:12.542Z,59.61
2018-10-06T16:42:18.166Z,60.34
2018-10-06T16:45:24.176Z,61.22
2018-10-06T16:48:30.447Z,61.92
2018-10-06T16:51:35.854Z,62.88
2018-10-06T16:54:41.425Z,63.20
2018-10-06T16:57:47.503Z,63.62
2018-10-06T17:00:52.909Z,62.95
2018-10-06T17:03:58.401Z,64.07
2018-10-06T17:07:03.810Z,63.89
2018-10-06T17:10:09.289Z,63.37
2018-10-06T17:13:15.023Z,63.38
2018-10-06T17:16:20.410Z,63.35
2018-10-06T17:19:25.827Z,63.91
2018-10-06T17:22:31.286Z,65.10
2018-10-06T17:25:36.818Z,65.25
2018-10-06T17:28:42.262Z,65.92
2018-10-06T17:31:47.664Z,66.43
2018-10-06T17:34:53.162Z,66.38
2018-10-06T17:37:58.595Z,66.67
2018-10-06T17:41:04.147Z,67.42
2018-10-06T17:44:09.646Z,68.41
2018-10-06T17:47:15.062Z,69.08
2018-10-06T17:50:20.546Z,69.06
2018-10-06T17:53:26.138Z,69.62
2018-10-06T17:56:31.734Z,69.04
2018-10-06T17:59:37.155Z,69.06
2018-10-06T18:02:42.546Z,69.82
2018-10-06T18:05:47.993Z,69.29
2018-10-06T18:08:53.412Z,69.45
2018-10-06T18:11:58.875Z,69.80
2018-10-06T18:15:04.473Z,69.70
2018-10-06T18:18:09.884Z,70.48
2018-10-06T18:21:15.446Z,71.43
2018-10-06T18:24:21.050Z,70.61
2018-10-06T18:27:27.059Z,70.47
2018-10-06T18:30:32.515Z,70.35
2018-10-06T18:33:37.981Z,70.66
2018-10-06T18:36:43.384Z,69.97
2018-10-06T18:39:49.028Z,70.89
2018-10-06T18:42:54.710Z,70.47
2018-10-06T18:46:00.446Z,70.89
2018-10-06T18:49:05.907Z,71.38
2018-10-06T18:52:11.598Z,70.87
2018-10-06T18:55:17.286Z,70.71
2018-10-06T18:58:22.705Z,71.52
2018-10-06T19:01:28.106Z,71.49
2018-10-06T19:04:33.598Z,71.31
2018-10-06T19:07:39.030Z,72.12
2018-10-06T19:10:44.446Z,73.90
2018-10-06T19:13:49.946Z,73.40
2018-10-06T19:16:55.349Z,72.41
2018-10-06T19:20:00.730Z,73.33
2018-10-06T19:23:06.209Z,74.36
2018-10-06T19:26:11.623Z,74.06
2018-10-06T19:29:17.486Z,74.53
2018-10-06T19:32:22.943Z,74.34
2018-10-06T19:35:28.387Z,74.75
2018-10-06T19:38:34.087Z,75.36
2018-10-06T19:41:39.906Z,74.30
2018-10-06T19:44:45.359Z,74.09
2018-10-06T19:47:50.761Z,74.54
2018-10-06T19:50:56.196Z,73.84
2018-10-06T19:54:01.706Z,73.74
2018-10-06T19:57:07.130Z,74.55
2018-10-06T20:00:12.688Z,74.18
2018-10-06T20:03:18.169Z,74.71
2018-10-06T20:06:23.723Z,74.09
2018-10-06T20:09:29.111Z,74.70
2018-10-06T20:12:34.581Z,75.38
2018-10-06T20:15:40.139Z,74.83
2018-10-06T20:18:45.545Z,75.37
2018-10-06T20:21:50.933Z,75.71
2018-10-06T20:24:56.374Z,75.82
2018-10-06T20:28:01.975Z,75.93
2018-10-06T20:31:07.451Z,75.77
2018-10-06T20:34:13.646Z,76.11
2018-10-06T20:37:19.282Z,75.76
2018-10-06T20:40:24.684Z,76.19
2018-10-06T20:43:30.335Z,76.23
2018-10-06T20:46:35.754Z,76.86
2018-10-06T20:49:41.137Z,76.96
2018-10-06T20:52:46.542Z,76.93
2018-10-06T20:55:51.930Z,76.60
2018-10-06T20:58:57.342Z,76.58
2018-10-06T21:02:02.951Z,76.73
2018-10-06T21:05:08.666Z,77.29
2018-10-06T21:08:14.063Z,77.16
2018-10-06T21:11:19.475Z,77.53
2018-10-06T21:14:24.930Z,77.07
2018-10-06T21:17:30.350Z,76.70
2018-10-06T21:20:35.904Z,77.21
2018-10-06T21:23:41.373Z,77.56
2018-10-06T21:26:47.006Z,77.66
2018-10-06T21:29:52.770Z,78.08
2018-10-06T21:32:58.293Z,77.95
2018-10-06T21:36:03.754Z,77.72
2018-10-06T21:39:10.571Z,78.17
2018-10-06T21:42:15.978Z,78.59
2018-10-06T21:45:21.426Z,78.49
2018-10-06T21:48:26.851Z,79.15
2018-10-06T21:51:32.322Z,78.86
2018-10-06T21:54:37.802Z,78.41
2018-10-06T21:57:44.175Z,78.69
2018-10-06T22:00:54.887Z,78.19
2018-10-06T22:04:00.463Z,78.57
2018-10-06T22:07:06.314Z,78.60
2018-10-06T22:10:12.098Z,78.50
2018-10-06T22:13:17.786Z,78.30
2018-10-06T22:16:23.818Z,78.70
2018-10-06T22:19:29.213Z,78.77
2018-10-06T22:22:34.647Z,78.41
2018-10-06T22:25:40.235Z,78.59
2018-10-06T22:28:45.659Z,79.31
2018-10-06T22:31:51.050Z,79.11
2018-10-06T22:34:56.530Z,78.91
2018-10-06T22:38:02.479Z,78.81
2018-10-06T22:41:08.369Z,79.31
2018-10-06T22:44:13.913Z,79.51
2018-10-06T22:47:19.323Z,79.87
2018-10-06T22:50:24.893Z,80.19
2018-10-06T22:53:30.380Z,79.93
2018-10-06T22:56:35.802Z,79.40
2018-10-06T22:59:41.226Z,79.74
2018-10-06T23:02:46.625Z,79.53
2018-10-06T23:05:52.046Z,79.98
2018-10-06T23:08:57.471Z,79.00
2018-10-06T23:12:02.874Z,79.27
2018-10-06T23:15:08.414Z,79.25
2018-10-06T23:18:13.855Z,78.88
2018-10-06T23:21:19.266Z,79.43
2018-10-06T23:24:24.721Z,78.90
2018-10-06T23:27:30.118Z,78.91
2018-10-06T23:30:35.755Z,79.37
2018-10-06T23:33:41.336Z,80.20
2018-10-06T23:36:46.884Z,78.96
2018-10-06T23:39:52.285Z,78.99
2018-10-06T23:42:57.738Z,79.51
2018-10-06T23:46:03.184Z,79.39
2018-10-06T23:49:08.609Z,80.84
2018-10-06T23:52:14.014Z,80.79
2018-10-06T23:55:19.869Z,80.53
2018-10-06T23:58:25.323Z,80.91
